createdAt,value
2022-09-24T00:00:16.785Z,100926.28
2022-09-24T00:05:43.195Z,100936.84
2022-09-24T00:10:50.930Z,100925.50
2022-09-24T00:15:56.809Z,100924.56
2022-09-24T00:21:12.138Z,100921.00
2022-09-24T00:26:52.187Z,100920.25
2022-09-24T00:31:58.138Z,100923.81
2022-09-24T00:37:04.251Z,100917.09
2022-09-24T00:42:12.315Z,100917.09
2022-09-24T00:47:30.461Z,100921.50
2022-09-24T00:52:40.081Z,100915.44
2022-09-24T00:57:49.314Z,100913.72
2022-09-24T01:03:01.431Z,100904.97
2022-09-24T01:08:08.678Z,100902.28
2022-09-24T01:13:51.954Z,100893.53
2022-09-24T01:19:13.512Z,100898.69
2022-09-24T01:25:00.063Z,100896.13
2022-09-24T01:30:10.825Z,100891.16
2022-09-24T01:35:22.342Z,100885.06
2022-09-24T01:40:31.894Z,100884.09
2022-09-24T01:45:41.708Z,100878.31
2022-09-24T01:50:56.695Z,100880.81
2022-09-24T01:56:09.825Z,100872.97
2022-09-24T02:01:24.175Z,100866.97
2022-09-24T02:06:36.509Z,100878.16
2022-09-24T02:11:42.690Z,100880.84
2022-09-24T02:16:52.094Z,100880.81
2022-09-24T02:21:59.050Z,100873.16
2022-09-24T02:27:05.136Z,100874.03
2022-09-24T02:32:17.065Z,100880.06
2022-09-24T02:37:26.103Z,100880.06
2022-09-24T02:42:32.544Z,100880.09
2022-09-24T02:47:40.904Z,100874.00
2022-09-24T02:52:47.051Z,100872.25
2022-09-24T02:57:52.951Z,100870.53
2022-09-24T03:03:00.528Z,100867.13
2022-09-24T03:08:07.821Z,100867.97
2022-09-24T03:13:13.858Z,100869.69
2022-09-24T03:18:21.431Z,100867.97
2022-09-24T03:23:28.352Z,100863.69
2022-09-24T03:28:34.634Z,100866.28
2022-09-24T03:33:44.043Z,100864.53
2022-09-24T03:38:52.451Z,100863.69
2022-09-24T03:43:58.532Z,100862.84
2022-09-24T03:49:06.005Z,100867.97
2022-09-24T03:54:11.992Z,100868.88
2022-09-24T03:59:18.138Z,100867.13
2022-09-24T04:04:25.839Z,100873.09
2022-09-24T04:09:32.207Z,100873.75
2022-09-24T04:14:38.480Z,100867.88
2022-09-24T04:19:45.819Z,100864.50
2022-09-24T04:24:52.916Z,100864.47
2022-09-24T04:29:58.779Z,100873.13
2022-09-24T04:35:07.697Z,100865.38
2022-09-24T04:40:14.342Z,100864.53
2022-09-24T04:45:21.264Z,100867.91
2022-09-24T04:50:33.574Z,100872.09
2022-09-24T04:55:39.813Z,100866.16
2022-09-24T05:00:46.058Z,100868.72
2022-09-24T05:05:53.586Z,100859.31
2022-09-24T05:11:00.360Z,100860.22
2022-09-24T05:16:06.718Z,100850.72
2022-09-24T05:21:14.183Z,100860.00
2022-09-24T05:26:37.596Z,100864.31
2022-09-24T05:31:43.579Z,100860.16
2022-09-24T05:36:51.081Z,100858.47
2022-09-24T05:41:57.788Z,100855.06
2022-09-24T05:47:03.783Z,100849.88
2022-09-24T05:52:11.368Z,100852.44
2022-09-24T05:57:17.651Z,100860.22
2022-09-24T06:02:25.027Z,100860.25
2022-09-24T06:07:32.588Z,100869.72
2022-09-24T06:12:38.593Z,100872.31
2022-09-24T06:17:44.686Z,100867.13
2022-09-24T06:22:52.158Z,100867.13
2022-09-24T06:28:00.920Z,100864.53
2022-09-24T06:33:10.111Z,100864.50
2022-09-24T06:38:20.054Z,100864.47
2022-09-24T06:43:25.969Z,100865.34
2022-09-24T06:48:32.672Z,100873.97
2022-09-24T06:53:40.057Z,100867.03
2022-09-24T06:58:46.843Z,100868.72
2022-09-24T07:03:53.130Z,100870.41
2022-09-24T07:09:01.538Z,100866.91
2022-09-24T07:14:07.954Z,100873.72
2022-09-24T07:19:14.015Z,100872.75
2022-09-24T07:24:21.608Z,100874.31
2022-09-24T07:29:27.970Z,100875.94
2022-09-24T07:34:35.016Z,100875.81
2022-09-24T07:39:42.599Z,100874.81
2022-09-24T07:44:48.983Z,100876.34
2022-09-24T07:49:55.255Z,100876.91
2022-09-24T07:55:02.765Z,100882.72
2022-09-24T08:00:13.353Z,100875.44
2022-09-24T08:05:19.715Z,100871.72
2022-09-24T08:10:29.470Z,100875.09
2022-09-24T08:15:36.013Z,100880.09
2022-09-24T08:20:42.032Z,100876.47
2022-09-24T08:25:49.735Z,100877.97
2022-09-24T08:31:00.906Z,100870.88
2022-09-24T08:36:10.574Z,100877.78
2022-09-24T08:42:02.600Z,100882.44
2022-09-24T08:47:25.470Z,100878.09
2022-09-24T08:53:03.487Z,100882.31
2022-09-24T08:58:44.316Z,100874.69
2022-09-24T09:03:58.192Z,100870.44
2022-09-24T09:09:12.827Z,100860.53
2022-09-24T09:14:30.606Z,100860.25
2022-09-24T09:19:39.656Z,100861.94
2022-09-24T09:24:51.052Z,100859.28
2022-09-24T09:30:07.168Z,100852.75
2022-09-24T09:35:23.602Z,100843.91
2022-09-24T09:40:38.106Z,100849.59
2022-09-24T09:46:01.011Z,100844.16
2022-09-24T09:51:08.370Z,100846.59
2022-09-24T09:56:14.674Z,100854.34
2022-09-24T10:01:22.158Z,100841.09
2022-09-24T10:06:31.567Z,100843.63
2022-09-24T10:11:38.049Z,100841.59
2022-09-24T10:16:53.525Z,100843.25
2022-09-24T10:22:08.817Z,100845.50
2022-09-24T10:27:22.689Z,100842.56
2022-09-24T10:32:31.206Z,100834.16
2022-09-24T10:37:37.504Z,100826.78
2022-09-24T10:42:43.405Z,100826.75
2022-09-24T10:47:59.152Z,100816.72
2022-09-24T10:53:14.458Z,100823.63
2022-09-24T10:58:43.228Z,100813.22
2022-09-24T11:04:21.234Z,100823.69
2022-09-24T11:09:38.735Z,100811.75
2022-09-24T11:15:08.590Z,100805.53
2022-09-24T11:20:38.486Z,100795.66
2022-09-24T11:25:56.153Z,100805.81
2022-09-24T11:31:13.858Z,100802.03
2022-09-24T11:36:43.409Z,100792.25
2022-09-24T11:42:03.081Z,100793.44
2022-09-24T11:47:26.511Z,100779.47
2022-09-24T11:52:40.873Z,100780.03
2022-09-24T11:57:54.536Z,100775.00
2022-09-24T12:03:07.789Z,100775.25
2022-09-24T12:08:19.239Z,100772.97
2022-09-24T12:13:31.675Z,100766.06
2022-09-24T12:18:47.149Z,100761.69
2022-09-24T12:24:02.791Z,100755.03
2022-09-24T12:29:55.366Z,100762.75
2022-09-24T12:35:13.441Z,100758.53
2022-09-24T12:40:54.660Z,100758.41
2022-09-24T12:46:04.320Z,100756.69
2022-09-24T12:51:12.058Z,100749.69
2022-09-24T12:56:28.164Z,100747.88
2022-09-24T13:01:36.076Z,100752.19
2022-09-24T13:06:45.344Z,100751.25
2022-09-24T13:12:21.545Z,100756.47
2022-09-24T13:17:27.686Z,100756.38
2022-09-24T13:22:36.284Z,100751.91
2022-09-24T13:27:45.611Z,100754.63
2022-09-24T13:32:58.980Z,100752.47
2022-09-24T13:38:15.113Z,100750.56
2022-09-24T13:43:44.285Z,100754.75
2022-09-24T13:48:54.511Z,100743.28
2022-09-24T13:54:09.746Z,100741.47
2022-09-24T13:59:18.387Z,100740.34
2022-09-24T14:04:25.223Z,100738.47
2022-09-24T14:09:36.526Z,100742.78
2022-09-24T14:14:47.696Z,100735.63
2022-09-24T14:19:58.446Z,100724.41
2022-09-24T14:25:09.416Z,100731.41
2022-09-24T14:30:23.880Z,100726.16
2022-09-24T14:35:35.025Z,100724.22
2022-09-24T14:40:44.983Z,100721.66
2022-09-24T14:45:53.718Z,100721.78
2022-09-24T14:51:00.054Z,100721.91
2022-09-24T14:56:21.742Z,100706.50
2022-09-24T15:01:35.384Z,100711.16
2022-09-24T15:06:47.245Z,100708.81
2022-09-24T15:11:55.571Z,100707.44
2022-09-24T15:17:23.650Z,100710.25
2022-09-24T15:22:31.484Z,100705.44
2022-09-24T15:27:42.422Z,100714.47
2022-09-24T15:32:51.621Z,100706.91
2022-09-24T15:38:00.673Z,100711.53
2022-09-24T15:43:17.182Z,100710.22
2022-09-24T15:48:25.052Z,100706.44
2022-09-24T15:53:32.325Z,100713.78
2022-09-24T15:58:39.077Z,100716.03
2022-09-24T16:03:47.416Z,100719.38
2022-09-24T16:08:55.889Z,100716.69
2022-09-24T16:14:05.998Z,100722.06
2022-09-24T16:19:13.625Z,100717.16
2022-09-24T16:24:20.577Z,100722.81
2022-09-24T16:29:26.822Z,100736.47
2022-09-24T16:34:34.793Z,100723.81
2022-09-24T16:39:41.087Z,100724.59
2022-09-24T16:44:48.294Z,100717.50
2022-09-24T16:49:56.792Z,100729.31
2022-09-24T16:55:02.898Z,100717.19
2022-09-24T17:00:12.031Z,100718.34
2022-09-24T17:05:19.915Z,100722.66
2022-09-24T17:10:26.133Z,100719.41
2022-09-24T17:15:32.283Z,100724.75
2022-09-24T17:20:39.815Z,100723.31
2022-09-24T17:25:45.950Z,100727.00
2022-09-24T17:30:53.698Z,100723.06
2022-09-24T17:36:05.921Z,100728.34
2022-09-24T17:41:14.550Z,100737.25
2022-09-24T17:46:23.644Z,100741.63
2022-09-24T17:51:34.313Z,100736.69
2022-09-24T17:56:40.850Z,100741.16
2022-09-24T18:01:48.179Z,100735.09
2022-09-24T18:06:56.096Z,100741.84
2022-09-24T18:12:02.798Z,100740.75
2022-09-24T18:17:09.050Z,100744.25
2022-09-24T18:22:16.747Z,100740.09
2022-09-24T18:27:25.767Z,100743.47
2022-09-24T18:32:32.408Z,100750.44
2022-09-24T18:37:40.573Z,100747.09
2022-09-24T18:42:46.853Z,100744.66
2022-09-24T18:47:53.641Z,100749.88
2022-09-24T18:53:01.604Z,100760.16
2022-09-24T18:58:08.301Z,100756.63
2022-09-24T19:03:14.711Z,100757.13
2022-09-24T19:08:25.253Z,100754.34
2022-09-24T19:13:32.326Z,100761.00
2022-09-24T19:18:39.507Z,100761.84
2022-09-24T19:23:49.496Z,100752.31
2022-09-24T19:28:56.662Z,100749.72
2022-09-24T19:34:03.763Z,100752.16
2022-09-24T19:39:11.916Z,100752.97
2022-09-24T19:44:18.075Z,100755.50
2022-09-24T19:49:24.912Z,100753.84
2022-09-24T19:54:32.975Z,100760.91
2022-09-24T19:59:39.471Z,100764.25
2022-09-24T20:04:46.720Z,100749.81
2022-09-24T20:09:57.092Z,100752.44
2022-09-24T20:15:03.168Z,100749.06
2022-09-24T20:20:10.522Z,100748.56
2022-09-24T20:25:18.364Z,100743.56
2022-09-24T20:30:25.684Z,100750.41
2022-09-24T20:35:31.889Z,100750.09
2022-09-24T20:40:42.901Z,100752.63
2022-09-24T20:45:49.005Z,100747.50
2022-09-24T20:50:57.194Z,100751.09
2022-09-24T20:56:06.200Z,100752.38
2022-09-24T21:01:12.634Z,100753.78
2022-09-24T21:06:23.146Z,100753.94
2022-09-24T21:11:31.418Z,100756.69
2022-09-24T21:16:37.966Z,100762.84
2022-09-24T21:21:44.445Z,100762.72
2022-09-24T21:26:51.853Z,100757.59
2022-09-24T21:31:57.818Z,100767.13
2022-09-24T21:37:04.297Z,100762.41
2022-09-24T21:42:11.685Z,100760.69
2022-09-24T21:47:18.382Z,100762.16
2022-09-24T21:52:24.425Z,100754.69
2022-09-24T21:57:32.145Z,100757.88
2022-09-24T22:02:42.642Z,100747.47
2022-09-24T22:07:49.577Z,100749.38
2022-09-24T22:12:57.550Z,100755.47
2022-09-24T22:18:03.915Z,100758.81
2022-09-24T22:23:10.204Z,100755.69
2022-09-24T22:28:20.671Z,100761.03
2022-09-24T22:33:47.485Z,100752.50
2022-09-24T22:38:56.276Z,100749.78
2022-09-24T22:44:04.117Z,100742.59
2022-09-24T22:49:11.139Z,100738.19
2022-09-24T22:54:18.636Z,100733.81
2022-09-24T22:59:25.993Z,100726.81
2022-09-24T23:04:32.877Z,100727.88
2022-09-24T23:09:38.968Z,100722.72
2022-09-24T23:14:46.749Z,100728.66
2022-09-24T23:19:53.041Z,100729.41
2022-09-24T23:24:59.004Z,100731.03
2022-09-24T23:30:07.763Z,100731.19
2022-09-24T23:35:43.257Z,100728.84
2022-09-24T23:40:51.136Z,100724.41
2022-09-24T23:45:58.932Z,100727.75
2022-09-24T23:51:04.898Z,100722.84
2022-09-24T23:56:11.073Z,100720.97
